createdAt,value
2023-01-28T00:03:48.987Z,0.1
2023-01-28T00:09:26.981Z,0.1
2023-01-28T00:14:46.465Z,0
2023-01-28T00:20:26.507Z,0
2023-01-28T00:26:08.197Z,0.1
2023-01-28T00:31:48.175Z,0.2
2023-01-28T00:37:16.906Z,0.1
2023-01-28T00:42:52.709Z,0
2023-01-28T00:48:06.116Z,0.1
2023-01-28T00:53:45.011Z,0.1
2023-01-28T00:59:13.264Z,0
2023-01-28T01:04:49.161Z,0
2023-01-28T01:10:42.823Z,0
2023-01-28T01:15:55.338Z,0
2023-01-28T01:21:33.710Z,0
2023-01-28T01:27:13.813Z,0
2023-01-28T01:32:58.521Z,0
2023-01-28T01:38:20.145Z,0.1
2023-01-28T01:44:08.784Z,0.1
2023-01-28T01:49:17.175Z,0.1
2023-01-28T01:54:53.453Z,0.1
2023-01-28T02:00:46.888Z,0.1
2023-01-28T02:05:57.642Z,0.1
2023-01-28T02:11:32.855Z,0.1
2023-01-28T02:22:45.409Z,0
2023-01-28T02:28:25.701Z,0
2023-01-28T02:33:50.449Z,0
2023-01-28T02:39:30.714Z,0.1
2023-01-28T02:45:20.281Z,0
2023-01-28T02:50:29.898Z,0.1
2023-01-28T02:56:11.072Z,0
2023-01-28T03:01:56.831Z,0.1
2023-01-28T03:07:14.298Z,0.1
2023-01-28T03:12:53.970Z,0.1
2023-01-28T03:18:44.284Z,0
2023-01-28T03:24:06.321Z,0.1
2023-01-28T03:29:51.969Z,0.1
2023-01-28T03:35:00.284Z,0
2023-01-28T03:40:31.116Z,0
2023-01-28T03:46:29.798Z,0
2023-01-28T03:52:06.040Z,0
2023-01-28T03:57:36.328Z,0
2023-01-28T04:03:13.399Z,0
2023-01-28T04:08:37.503Z,0
2023-01-28T04:14:07.631Z,0
2023-01-28T04:19:50.465Z,0
2023-01-28T04:25:26.778Z,0.1
2023-01-28T04:31:04.516Z,0.1
2023-01-28T04:36:35.633Z,0.1
2023-01-28T04:41:56.664Z,0
2023-01-28T04:47:28.184Z,0
2023-01-28T04:53:07.959Z,0
2023-01-28T04:58:39.039Z,0
2023-01-28T05:04:16.859Z,0
2023-01-28T05:09:45.257Z,0
2023-01-28T05:15:23.832Z,0
2023-01-28T05:21:07.521Z,0
2023-01-28T05:26:24.321Z,0
2023-01-28T05:31:57.191Z,0
2023-01-28T05:37:50.340Z,0.1
2023-01-28T05:43:12.526Z,0
2023-01-28T05:48:36.848Z,0
2023-01-28T05:54:14.667Z,0.1
2023-01-28T06:00:01.789Z,0
2023-01-28T06:05:26.016Z,0.1
2023-01-28T06:11:00.103Z,0
2023-01-28T06:16:48.682Z,0
2023-01-28T06:22:18.967Z,0
2023-01-28T06:27:50.395Z,0
2023-01-28T06:33:34.510Z,0
2023-01-28T06:39:00.093Z,0
2023-01-28T06:44:17.019Z,0
2023-01-28T06:49:55.252Z,0.1
2023-01-28T06:55:48.900Z,0.1
2023-01-28T07:01:02.241Z,0.1
2023-01-28T07:06:59.677Z,0.1
2023-01-28T07:17:45.895Z,0.1
2023-01-28T07:23:21.679Z,0.2
2023-01-28T07:28:59.479Z,0.1
2023-01-28T07:34:51.062Z,0.1
2023-01-28T07:40:06.301Z,0.1
2023-01-28T07:45:56.200Z,0.2
2023-01-28T07:51:04.087Z,0.3
2023-01-28T07:56:42.381Z,0.3
2023-01-28T08:02:39.732Z,0.3
2023-01-28T08:08:00.970Z,0.2
2023-01-28T08:13:46.544Z,0.3
2023-01-28T08:18:59.809Z,0.3
2023-01-28T08:24:29.574Z,0.3
2023-01-28T08:30:29.180Z,0.4
2023-01-28T08:35:45.688Z,0.4
2023-01-28T08:41:09.242Z,0.4
2023-01-28T08:46:58.271Z,0.4
2023-01-28T08:52:31.103Z,0.4
2023-01-28T08:58:03.341Z,0.4
2023-01-28T09:03:50.200Z,0.5
2023-01-28T09:09:14.712Z,0.5
2023-01-28T09:14:38.148Z,0.5
2023-01-28T09:20:13.299Z,0.6
2023-01-28T09:25:40.058Z,0.6
2023-01-28T09:31:31.342Z,0.6
2023-01-28T09:36:57.657Z,0.7
2023-01-28T09:42:48.249Z,0.7
2023-01-28T09:47:58.911Z,0.7
2023-01-28T09:53:34.645Z,0.7
2023-01-28T09:59:21.236Z,0.7
2023-01-28T10:04:41.157Z,0.7
2023-01-28T10:10:22.848Z,0.8
2023-01-28T10:15:55.225Z,0.8
2023-01-28T10:21:40.289Z,0.7
2023-01-28T10:27:00.519Z,0.7
2023-01-28T10:32:57.499Z,0.6
2023-01-28T10:38:12.955Z,0.8
2023-01-28T10:43:55.375Z,0.9
2023-01-28T10:49:37.376Z,0.9
2023-01-28T10:54:56.227Z,0.9
2023-01-28T11:00:45.028Z,0.8
2023-01-28T11:05:56.578Z,0.7
2023-01-28T11:11:39.758Z,0.7
2023-01-28T11:17:13.060Z,0.7
2023-01-28T11:22:49.835Z,0.7
2023-01-28T11:28:38.869Z,0.7
2023-01-28T11:34:01.062Z,0.7
2023-01-28T11:39:39.236Z,0.8
2023-01-28T11:44:53.382Z,0.8
2023-01-28T11:50:30.240Z,0.7
2023-01-28T11:56:15.396Z,0.7
2023-01-28T12:02:00.047Z,0.6
2023-01-28T12:07:10.097Z,0.7
2023-01-28T12:13:02.980Z,0.7
2023-01-28T12:18:39.668Z,0.7
2023-01-28T12:24:14.841Z,0.7
2023-01-28T12:29:36.735Z,0.8
2023-01-28T12:35:15.903Z,0.8
2023-01-28T12:40:50.506Z,0.8
2023-01-28T12:46:31.264Z,0.8
2023-01-28T12:51:44.000Z,0.8
2023-01-28T12:57:30.574Z,0.9
2023-01-28T13:03:13.688Z,1
2023-01-28T13:08:27.037Z,1
2023-01-28T13:14:11.222Z,1.1
2023-01-28T13:19:40.671Z,1.1
2023-01-28T13:25:28.165Z,1.1
2023-01-28T13:30:47.199Z,1.1
2023-01-28T13:36:13.712Z,1.1
2023-01-28T13:41:54.644Z,1
2023-01-28T13:47:21.495Z,1
2023-01-28T13:53:21.701Z,1.1
2023-01-28T13:58:53.077Z,1.1
2023-01-28T14:04:14.739Z,1
2023-01-28T14:09:54.576Z,1
2023-01-28T14:15:17.594Z,1
2023-01-28T14:20:51.211Z,1
2023-01-28T14:26:21.124Z,1
2023-01-28T14:32:14.881Z,1.1
2023-01-28T14:37:43.965Z,1
2023-01-28T14:43:12.735Z,1
2023-01-28T14:49:00.158Z,1
2023-01-28T14:54:29.235Z,1
2023-01-28T14:59:45.004Z,1
2023-01-28T15:05:34.671Z,1
2023-01-28T15:11:16.363Z,1
2023-01-28T15:16:31.860Z,1
2023-01-28T15:22:14.245Z,0.9
2023-01-28T15:27:50.839Z,1
2023-01-28T15:33:23.622Z,1
2023-01-28T15:38:44.077Z,1
2023-01-28T15:44:24.470Z,1
2023-01-28T15:49:46.824Z,1
2023-01-28T15:55:21.075Z,1
2023-01-28T16:00:59.175Z,0.9
2023-01-28T16:06:45.752Z,0.9
2023-01-28T16:12:13.236Z,0.9
2023-01-28T16:17:44.102Z,0.9
2023-01-28T16:23:29.870Z,0.8
2023-01-28T16:29:00.767Z,0.8
2023-01-28T16:34:46.344Z,0.8
2023-01-28T16:40:02.402Z,0.8
2023-01-28T16:45:32.431Z,0.8
2023-01-28T16:51:20.747Z,0.8
2023-01-28T16:56:50.967Z,1
2023-01-28T17:02:21.569Z,0.9
2023-01-28T17:08:07.643Z,0.9
2023-01-28T17:13:23.467Z,0.9
2023-01-28T17:19:10.852Z,0.9
2023-01-28T17:24:39.849Z,0.9
2023-01-28T17:30:17.746Z,0.9
2023-01-28T17:35:48.639Z,0.9
2023-01-28T17:41:21.565Z,0.9
2023-01-28T17:46:44.548Z,1
2023-01-28T17:52:35.423Z,0.9
2023-01-28T17:57:51.591Z,0.9
2023-01-28T18:03:36.465Z,0.8
2023-01-28T18:09:18.304Z,0.9
2023-01-28T18:14:33.931Z,0.9
2023-01-28T18:20:11.949Z,0.8
2023-01-28T18:25:38.013Z,0.9
2023-01-28T18:31:15.310Z,0.8
2023-01-28T18:37:03.763Z,0.8
2023-01-28T18:42:39.232Z,0.8
2023-01-28T18:47:59.652Z,0.8
2023-01-28T18:53:43.582Z,0.8
2023-01-28T18:59:28.287Z,0.7
2023-01-28T19:04:38.099Z,0.9
2023-01-28T19:10:35.974Z,0.8
2023-01-28T19:16:02.912Z,0.8
2023-01-28T19:21:30.450Z,0.9
2023-01-28T19:27:06.361Z,0.9
2023-01-28T19:32:24.279Z,0.9
2023-01-28T19:38:00.932Z,0.8
2023-01-28T19:43:56.904Z,0.9
2023-01-28T19:49:10.233Z,0.8
2023-01-28T19:54:46.243Z,0.9
2023-01-28T20:00:26.348Z,0.8
2023-01-28T20:05:50.023Z,1
2023-01-28T20:11:43.047Z,0.9
2023-01-28T20:17:12.221Z,0.7
2023-01-28T20:22:35.071Z,0.7
2023-01-28T20:28:02.521Z,0.8
2023-01-28T20:34:02.604Z,0.8
2023-01-28T20:39:12.224Z,0.8
2023-01-28T20:44:55.325Z,0.9
2023-01-28T20:50:30.328Z,0.9
2023-01-28T20:56:11.616Z,0.9
2023-01-28T21:01:46.792Z,0.8
2023-01-28T21:07:24.095Z,0.8
2023-01-28T21:12:56.867Z,0.7
2023-01-28T21:18:27.020Z,0.8
2023-01-28T21:23:58.549Z,0.7
2023-01-28T21:29:28.764Z,0.6
2023-01-28T21:35:15.772Z,0.7
2023-01-28T21:40:29.441Z,0.6
2023-01-28T21:46:21.258Z,0.7
2023-01-28T21:51:35.442Z,0.6
2023-01-28T21:57:01.696Z,0.6
2023-01-28T22:03:00.204Z,0.5
2023-01-28T22:08:30.527Z,0.4
2023-01-28T22:13:45.296Z,0.5
2023-01-28T22:19:18.728Z,0.5
2023-01-28T22:24:54.150Z,0.5
2023-01-28T22:30:30.448Z,0.5
2023-01-28T22:36:15.690Z,0.4
2023-01-28T22:41:49.613Z,0.5
2023-01-28T22:47:13.964Z,0.6
2023-01-28T22:52:45.146Z,0.6
2023-01-28T22:58:26.687Z,0.5
2023-01-28T23:03:52.605Z,0.4
2023-01-28T23:09:43.274Z,0.5
2023-01-28T23:14:54.713Z,0.6
2023-01-28T23:20:46.803Z,0.6
2023-01-28T23:26:07.030Z,0.6
2023-01-28T23:31:40.116Z,0.6
2023-01-28T23:37:19.699Z,0.7
2023-01-28T23:43:04.362Z,0.8
2023-01-28T23:48:29.243Z,0.7
2023-01-28T23:53:49.306Z,0.6
2023-01-28T23:59:41.818Z,0.6
